Time;durP1;ratioP1;P1;durP2;ratioP2;P2;SDS_P1;SDS_P2;PMS_P1;PMS_P2;Temp;Humidity;BMP_temperature;BMP_pressure;BME280_temperature;BME280_humidity;BME280_pressure;Samples;Min_cycle;Max_cycle;Signal;HPM_P1;HPM_P2
2021/05/29 00:01:06;;;;;;;13.80;8.93;;;10.40;99.90;;;;;;5094047;28;20256;-71
2021/05/29 00:03:54;;;;;;;16.50;9.60;;;10.40;99.90;;;;;;5089440;28;20274;-71
2021/05/29 00:06:41;;;;;;;16.27;9.70;;;10.40;99.90;;;;;;5094662;28;20235;-71
2021/05/29 00:09:28;;;;;;;20.50;10.40;;;10.40;99.90;;;;;;5088624;28;20283;-71
2021/05/29 00:12:15;;;;;;;14.87;9.93;;;10.40;99.90;;;;;;5095576;28;20233;-71
2021/05/29 00:15:02;;;;;;;15.03;9.37;;;10.40;99.90;;;;;;5080045;28;20245;-71
2021/05/29 00:17:49;;;;;;;16.77;9.30;;;10.30;99.90;;;;;;5094850;28;20309;-71
2021/05/29 00:20:39;;;;;;;13.97;9.50;;;10.30;99.90;;;;;;5094173;28;20230;-71
2021/05/29 00:23:26;;;;;;;19.33;10.27;;;10.30;99.90;;;;;;5095042;28;20208;-71
2021/05/29 00:26:13;;;;;;;20.17;10.60;;;10.30;99.90;;;;;;5094798;28;20203;-71
2021/05/29 00:29:00;;;;;;;16.67;10.13;;;10.30;99.90;;;;;;5093920;28;20670;-71
2021/05/29 00:31:47;;;;;;;15.77;9.23;;;10.30;99.90;;;;;;5095570;28;20203;-71
2021/05/29 00:34:34;;;;;;;15.87;9.47;;;10.30;99.90;;;;;;5094148;28;20234;-71
2021/05/29 00:37:22;;;;;;;17.83;9.47;;;10.30;99.90;;;;;;5094198;28;20203;-71
2021/05/29 00:40:11;;;;;;;16.17;9.83;;;10.20;99.90;;;;;;5095000;28;20188;-71
2021/05/29 00:42:58;;;;;;;16.07;9.93;;;10.20;99.90;;;;;;5094599;28;20561;-71
2021/05/29 00:45:45;;;;;;;16.10;10.13;;;10.20;99.90;;;;;;5095163;28;20203;-71
2021/05/29 00:48:33;;;;;;;16.77;9.90;;;10.20;99.90;;;;;;5095005;28;20301;-71
2021/05/29 00:51:20;;;;;;;14.93;9.53;;;10.10;99.90;;;;;;5094548;28;20207;-71
2021/05/29 00:54:09;;;;;;;20.93;9.40;;;10.10;99.90;;;;;;5090651;28;20223;-71
2021/05/29 00:56:56;;;;;;;19.67;10.60;;;10.10;99.90;;;;;;5086229;28;20203;-71
2021/05/29 00:59:43;;;;;;;14.73;9.60;;;10.10;99.90;;;;;;5095094;28;20360;-71
2021/05/29 01:02:30;;;;;;;14.93;9.43;;;10.10;99.90;;;;;;5094087;28;20460;-71
2021/05/29 01:05:18;;;;;;;17.20;10.93;;;10.00;99.90;;;;;;5093787;28;20697;-71
2021/05/29 01:08:05;;;;;;;19.37;11.00;;;10.00;99.90;;;;;;5094268;28;20569;-71
2021/05/29 01:10:53;;;;;;;23.60;10.97;;;10.00;99.90;;;;;;5093858;28;20195;-71
2021/05/29 01:13:40;;;;;;;17.77;10.73;;;10.00;99.90;;;;;;5094809;28;20289;-71
2021/05/29 01:16:43;;;;;;;16.40;10.87;;;10.00;99.90;;;;;;5094132;28;20275;-71
2021/05/29 01:19:30;;;;;;;20.23;10.73;;;10.10;99.90;;;;;;5084847;28;20570;-71
2021/05/29 01:22:39;;;;;;;16.33;10.47;;;10.10;99.90;;;;;;5088046;28;20251;-71
2021/05/29 01:25:29;;;;;;;20.33;10.20;;;10.10;99.90;;;;;;5087747;28;20550;-71
2021/05/29 01:28:18;;;;;;;17.70;10.43;;;10.10;99.90;;;;;;5088127;28;20256;-71
2021/05/29 01:31:07;;;;;;;18.00;11.73;;;10.10;99.90;;;;;;5094265;28;20768;-71
2021/05/29 01:33:55;;;;;;;17.00;10.23;;;10.10;99.90;;;;;;5088732;28;20198;-71
2021/05/29 01:36:42;;;;;;;15.83;9.53;;;10.10;99.90;;;;;;5094116;28;20195;-71
2021/05/29 01:39:31;;;;;;;16.67;10.70;;;10.10;99.90;;;;;;5087591;28;20619;-71
2021/05/29 01:42:17;;;;;;;17.97;10.60;;;10.10;99.90;;;;;;5094219;28;20265;-71
2021/05/29 01:45:06;;;;;;;18.27;10.33;;;10.20;99.90;;;;;;5094350;28;20203;-71
2021/05/29 01:47:53;;;;;;;17.53;11.10;;;10.20;99.90;;;;;;5087604;28;20221;-71
2021/05/29 01:50:46;;;;;;;19.70;12.40;;;10.20;99.90;;;;;;5093328;28;20197;-71
2021/05/29 01:53:34;;;;;;;24.23;13.93;;;10.20;99.90;;;;;;5087565;28;20216;-71
2021/05/29 01:56:22;;;;;;;21.97;13.70;;;10.20;99.90;;;;;;5094388;28;20197;-71
2021/05/29 01:59:09;;;;;;;23.37;14.00;;;10.20;99.90;;;;;;5086781;28;20596;-71
2021/05/29 02:01:56;;;;;;;22.87;14.07;;;10.20;99.90;;;;;;5092895;28;20215;-71
2021/05/29 02:04:43;;;;;;;31.30;16.90;;;10.20;99.90;;;;;;5087015;28;20655;-71
2021/05/29 02:07:30;;;;;;;25.97;15.50;;;10.10;99.90;;;;;;5093362;28;20240;-71
2021/05/29 02:10:19;;;;;;;25.50;15.00;;;10.10;99.90;;;;;;5093116;28;20317;-71
2021/05/29 02:13:07;;;;;;;24.40;15.17;;;10.10;99.90;;;;;;5093687;28;20272;-71
2021/05/29 02:15:55;;;;;;;24.33;14.50;;;10.10;99.90;;;;;;5087325;28;20195;-71
2021/05/29 02:18:42;;;;;;;23.23;13.87;;;10.20;99.90;;;;;;5092931;28;20198;-71
2021/05/29 02:21:29;;;;;;;24.13;14.47;;;10.10;99.90;;;;;;5093324;28;20596;-71
2021/05/29 02:24:16;;;;;;;29.00;15.33;;;10.10;99.90;;;;;;5092783;28;20273;-72
2021/05/29 02:27:04;;;;;;;23.60;15.07;;;10.10;99.90;;;;;;5087643;28;20195;-72
2021/05/29 02:29:52;;;;;;;28.27;15.00;;;10.10;99.90;;;;;;5092565;28;20209;-71
2021/05/29 02:32:39;;;;;;;28.33;15.77;;;10.10;99.90;;;;;;5092133;28;20206;-70
2021/05/29 02:35:27;;;;;;;26.40;15.40;;;10.10;99.90;;;;;;5092719;28;20195;-70
2021/05/29 02:38:14;;;;;;;24.33;14.50;;;10.10;99.90;;;;;;5087367;28;20195;-71
2021/05/29 02:41:01;;;;;;;25.83;14.87;;;10.10;99.90;;;;;;5093370;28;20654;-71
2021/05/29 02:43:48;;;;;;;21.63;14.27;;;10.10;99.90;;;;;;5085680;28;20306;-70
2021/05/29 02:46:36;;;;;;;25.10;14.53;;;10.10;99.90;;;;;;5092807;28;20643;-70
2021/05/29 02:49:23;;;;;;;22.33;13.43;;;10.10;99.90;;;;;;5086690;28;20231;-71
2021/05/29 02:52:10;;;;;;;24.53;14.00;;;10.10;99.90;;;;;;5093307;28;20199;-71
2021/05/29 02:54:57;;;;;;;22.10;12.80;;;10.10;99.90;;;;;;5087495;28;20224;-70
2021/05/29 02:57:44;;;;;;;22.80;12.27;;;10.00;99.90;;;;;;5092482;28;20252;-70
2021/05/29 03:00:32;;;;;;;21.40;12.43;;;10.00;99.90;;;;;;5087646;28;20589;-70
2021/05/29 03:03:20;;;;;;;23.87;11.93;;;10.00;99.90;;;;;;5092369;28;20219;-70
2021/05/29 03:06:07;;;;;;;24.67;10.73;;;10.00;99.90;;;;;;5091167;28;20294;-70
2021/05/29 03:08:56;;;;;;;19.00;12.10;;;10.00;99.90;;;;;;5092080;28;20644;-70
2021/05/29 03:11:44;;;;;;;22.10;10.53;;;10.00;99.90;;;;;;5092300;28;20233;-70
2021/05/29 03:14:31;;;;;;;18.50;10.60;;;10.00;99.90;;;;;;5085890;28;20203;-70
2021/05/29 03:17:18;;;;;;;16.07;10.30;;;10.00;99.90;;;;;;5092553;28;20231;-69
2021/05/29 03:20:06;;;;;;;17.43;10.37;;;9.90;99.90;;;;;;5086733;28;20250;-70
2021/05/29 03:22:53;;;;;;;15.33;9.87;;;9.90;99.90;;;;;;5092182;28;20249;-69
2021/05/29 03:25:42;;;;;;;16.47;9.67;;;9.90;99.90;;;;;;5091799;28;20238;-69
2021/05/29 03:28:29;;;;;;;16.73;10.37;;;9.90;99.90;;;;;;5091870;28;20200;-69
2021/05/29 03:31:16;;;;;;;19.37;9.87;;;9.80;99.90;;;;;;5091106;28;20605;-70
2021/05/29 03:34:03;;;;;;;17.40;10.23;;;9.80;99.90;;;;;;5086164;28;20208;-70
2021/05/29 03:36:51;;;;;;;19.03;9.63;;;9.80;99.90;;;;;;5095067;28;20214;-69
2021/05/29 03:39:38;;;;;;;20.17;10.70;;;9.80;99.90;;;;;;5095517;28;21897;-70
2021/05/29 03:42:25;;;;;;;19.03;10.13;;;9.80;99.90;;;;;;5096033;28;20552;-69
2021/05/29 03:45:13;;;;;;;22.10;10.60;;;9.80;99.90;;;;;;5087577;28;20278;-69
2021/05/29 03:48:00;;;;;;;24.13;11.90;;;9.80;99.90;;;;;;5095349;28;20195;-70
2021/05/29 03:50:47;;;;;;;25.47;11.97;;;9.90;99.90;;;;;;5095238;28;20203;-70
2021/05/29 03:53:35;;;;;;;23.53;12.67;;;10.00;99.90;;;;;;5095595;28;20195;-69
2021/05/29 03:56:23;;;;;;;21.57;12.10;;;9.90;99.90;;;;;;5095316;28;20206;-70
2021/05/29 03:59:13;;;;;;;23.07;12.90;;;9.90;99.90;;;;;;5096332;28;20256;-70
2021/05/29 04:02:00;;;;;;;22.87;12.87;;;9.90;99.90;;;;;;5095839;28;20536;-70
2021/05/29 04:04:47;;;;;;;26.40;13.37;;;9.90;99.90;;;;;;5094240;28;20239;-70
2021/05/29 04:07:34;;;;;;;20.60;13.07;;;9.90;99.90;;;;;;5095139;28;20663;-70
2021/05/29 04:10:23;;;;;;;23.20;14.10;;;9.90;99.90;;;;;;5086579;28;20210;-70
2021/05/29 04:13:19;;;;;;;25.63;14.13;;;9.90;99.90;;;;;;5094190;28;20634;-70
2021/05/29 04:16:06;;;;;;;23.27;14.30;;;9.90;99.90;;;;;;5080194;28;20189;-69
2021/05/29 04:18:54;;;;;;;21.00;13.73;;;9.80;99.90;;;;;;5095117;28;20202;-70
2021/05/29 04:21:41;;;;;;;25.60;15.13;;;9.80;99.90;;;;;;5095711;28;20210;-69
2021/05/29 04:24:31;;;;;;;22.60;14.37;;;9.80;99.90;;;;;;5094813;28;20308;-70
2021/05/29 04:27:22;;;;;;;20.30;14.17;;;9.80;99.90;;;;;;5095439;28;20207;-70
2021/05/29 04:30:11;;;;;;;28.37;13.70;;;9.80;99.90;;;;;;5087494;28;20227;-69
2021/05/29 04:32:58;;;;;;;21.80;14.37;;;9.80;99.90;;;;;;5095476;28;20650;-69
2021/05/29 04:35:45;;;;;;;24.63;15.60;;;9.80;99.90;;;;;;5088236;28;20259;-70
2021/05/29 04:38:32;;;;;;;23.60;14.60;;;9.80;99.90;;;;;;5095436;28;20199;-70
2021/05/29 04:41:20;;;;;;;25.33;15.10;;;9.80;99.90;;;;;;5087244;28;20249;-70
2021/05/29 04:44:08;;;;;;;25.67;14.90;;;9.80;99.90;;;;;;5095250;28;20273;-70
2021/05/29 04:47:00;;;;;;;23.13;14.60;;;9.80;99.90;;;;;;5094245;28;20240;-70
2021/05/29 04:49:47;;;;;;;24.00;14.37;;;9.90;99.90;;;;;;5094871;28;20722;-70
2021/05/29 04:52:34;;;;;;;24.60;14.70;;;9.90;99.90;;;;;;5093909;28;20236;-70
2021/05/29 04:55:22;;;;;;;22.37;14.73;;;9.90;99.90;;;;;;5094479;28;20203;-70
2021/05/29 04:58:08;;;;;;;23.67;14.97;;;9.90;99.90;;;;;;5089084;28;20578;-70
2021/05/29 05:00:57;;;;;;;24.37;14.80;;;9.90;99.90;;;;;;5094961;28;20227;-70
2021/05/29 05:03:44;;;;;;;21.70;14.50;;;9.90;99.90;;;;;;5094557;28;20278;-70
2021/05/29 05:06:31;;;;;;;22.83;14.03;;;10.00;99.90;;;;;;5083774;28;20229;-70
2021/05/29 05:09:18;;;;;;;21.73;12.67;;;10.00;99.90;;;;;;5089382;28;20654;-70
2021/05/29 05:12:06;;;;;;;19.43;12.93;;;9.90;99.90;;;;;;5094129;28;20568;-70
2021/05/29 05:14:53;;;;;;;16.23;11.27;;;10.00;99.90;;;;;;5094362;28;20322;-70
2021/05/29 05:17:41;;;;;;;17.73;10.70;;;10.00;99.90;;;;;;5094487;28;20234;-70
2021/05/29 05:20:28;;;;;;;15.20;9.73;;;10.00;99.90;;;;;;5087856;28;20198;-70
2021/05/29 05:23:18;;;;;;;13.10;9.00;;;10.10;99.90;;;;;;5093082;28;20612;-70
2021/05/29 05:26:05;;;;;;;13.67;9.40;;;10.10;99.90;;;;;;5087738;28;20206;-70
2021/05/29 05:28:52;;;;;;;13.27;8.80;;;10.10;99.90;;;;;;5093311;28;20225;-70
2021/05/29 05:31:42;;;;;;;13.37;8.27;;;10.10;99.90;;;;;;5086853;28;20243;-70
2021/05/29 05:34:30;;;;;;;12.57;8.40;;;10.10;99.90;;;;;;5084363;28;20196;-70
2021/05/29 05:37:17;;;;;;;10.47;7.57;;;10.20;99.90;;;;;;5085796;28;20238;-70
2021/05/29 05:40:04;;;;;;;10.17;7.23;;;10.20;99.90;;;;;;5093261;28;20195;-70
2021/05/29 05:42:52;;;;;;;10.80;7.23;;;10.20;99.90;;;;;;5093203;28;20216;-70
2021/05/29 05:45:39;;;;;;;10.53;7.07;;;10.10;99.90;;;;;;5087130;28;20249;-70
2021/05/29 05:48:26;;;;;;;10.10;6.70;;;10.20;99.90;;;;;;5092538;28;20661;-70
2021/05/29 05:51:14;;;;;;;12.30;7.13;;;10.20;99.90;;;;;;5086176;28;20325;-70
2021/05/29 05:54:01;;;;;;;10.47;6.40;;;10.30;99.90;;;;;;5092854;28;20198;-70
2021/05/29 05:56:48;;;;;;;10.90;6.40;;;10.30;99.90;;;;;;5092331;28;20203;-70
2021/05/29 05:59:35;;;;;;;9.40;6.57;;;10.40;99.90;;;;;;5082468;28;20201;-70
2021/05/29 06:02:22;;;;;;;10.10;6.40;;;10.50;99.90;;;;;;5093253;28;20280;-70
2021/05/29 06:05:09;;;;;;;8.13;5.77;;;10.50;99.90;;;;;;5086564;28;20204;-70
2021/05/29 06:07:58;;;;;;;7.53;5.37;;;10.60;99.90;;;;;;5089503;28;20195;-70
2021/05/29 06:10:45;;;;;;;8.60;5.87;;;10.80;99.90;;;;;;5087312;28;20211;-69
2021/05/29 06:19:41;;;;;;;7.73;4.80;;;11.10;99.90;;;;;;5089840;28;20286;-69
2021/05/29 06:22:29;;;;;;;7.57;5.50;;;11.10;99.90;;;;;;5087463;28;20314;-69
2021/05/29 06:25:17;;;;;;;7.03;4.70;;;11.10;99.90;;;;;;5085787;28;20258;-70
2021/05/29 06:28:04;;;;;;;7.07;4.33;;;11.30;99.90;;;;;;5092970;28;20203;-70
2021/05/29 06:30:51;;;;;;;6.83;4.40;;;11.50;99.90;;;;;;5084177;28;20240;-70
2021/05/29 06:33:38;;;;;;;8.60;4.23;;;11.60;99.90;;;;;;5092204;28;20216;-70
2021/05/29 06:36:26;;;;;;;6.67;3.43;;;11.80;99.90;;;;;;5092341;28;20192;-70
2021/05/29 06:39:13;;;;;;;6.83;3.60;;;11.80;99.90;;;;;;5092543;28;20221;-70
2021/05/29 06:42:01;;;;;;;4.80;3.40;;;11.90;99.90;;;;;;5086526;28;20227;-70
2021/05/29 06:44:48;;;;;;;5.60;3.10;;;11.80;99.90;;;;;;5092239;28;20198;-70
2021/05/29 06:47:35;;;;;;;4.53;3.33;;;11.70;99.90;;;;;;5092636;28;20188;-70
2021/05/29 06:50:22;;;;;;;7.03;3.17;;;11.80;99.90;;;;;;5092465;28;20196;-70
2021/05/29 06:53:13;;;;;;;4.60;2.90;;;11.90;99.90;;;;;;5091551;28;20599;-70
2021/05/29 06:59:06;;;;;;;6.20;3.30;;;12.10;99.90;;;;;;5087373;28;20587;-66
2021/05/29 07:01:53;;;;;;;5.57;2.97;;;12.20;99.90;;;;;;5092717;28;20228;-67
2021/05/29 07:04:40;;;;;;;9.80;3.13;;;12.20;99.90;;;;;;5091865;28;20775;-66
2021/05/29 07:07:27;;;;;;;6.40;3.70;;;12.20;99.90;;;;;;5091780;28;20217;-66
2021/05/29 07:10:14;;;;;;;7.43;3.47;;;12.10;99.90;;;;;;5095400;28;20252;-66
2021/05/29 07:13:01;;;;;;;5.83;3.23;;;12.30;99.90;;;;;;5095596;28;20205;-66
2021/05/29 07:15:50;;;;;;;6.13;3.40;;;12.50;99.90;;;;;;5090448;28;20209;-66
2021/05/29 07:18:44;;;;;;;6.80;4.07;;;12.50;99.90;;;;;;5095977;28;20206;-67
2021/05/29 07:21:33;;;;;;;6.83;3.50;;;12.50;99.90;;;;;;5091094;28;20285;-67
2021/05/29 07:24:20;;;;;;;6.97;3.43;;;12.70;99.90;;;;;;5091113;28;20317;-67
2021/05/29 07:27:07;;;;;;;4.30;2.80;;;12.90;99.90;;;;;;5076259;28;20644;-66
2021/05/29 07:29:54;;;;;;;4.00;2.50;;;13.30;99.90;;;;;;5076325;28;20329;-68
2021/05/29 07:32:42;;;;;;;3.73;2.90;;;13.60;99.90;;;;;;5083422;28;20211;-66
2021/05/29 07:35:29;;;;;;;5.13;2.57;;;13.70;99.90;;;;;;5073752;28;20695;-66
2021/05/29 07:38:16;;;;;;;2.90;2.37;;;13.90;99.90;;;;;;5064458;28;20209;-67
2021/05/29 07:41:03;;;;;;;2.37;2.10;;;14.10;99.90;;;;;;5071999;28;20232;-68
2021/05/29 07:43:50;;;;;;;2.57;2.20;;;14.00;99.90;;;;;;5064396;28;20262;-67
2021/05/29 07:46:37;;;;;;;2.83;1.90;;;14.30;99.90;;;;;;5063046;28;20642;-67
2021/05/29 07:49:25;;;;;;;2.67;1.80;;;14.20;99.90;;;;;;5077871;28;20275;-67
2021/05/29 07:52:12;;;;;;;2.30;1.67;;;14.30;99.90;;;;;;5062838;28;20666;-66
2021/05/29 07:54:59;;;;;;;3.53;1.90;;;14.30;99.90;;;;;;5065337;28;20279;-67
2021/05/29 07:57:46;;;;;;;5.50;2.70;;;14.40;99.90;;;;;;5069876;28;20193;-67
2021/05/29 08:00:33;;;;;;;6.77;3.60;;;14.10;99.90;;;;;;5057530;28;20209;-68
2021/05/29 08:03:21;;;;;;;7.23;3.97;;;13.90;99.90;;;;;;5069433;28;20205;-67
2021/05/29 08:06:13;;;;;;;12.10;4.50;;;13.50;99.90;;;;;;5064845;28;20225;-66
2021/05/29 08:09:01;;;;;;;13.40;4.80;;;13.40;99.90;;;;;;5063280;28;20604;-67
2021/05/29 08:11:48;;;;;;;7.43;4.20;;;13.10;99.90;;;;;;5063694;28;20244;-67
2021/05/29 08:14:35;;;;;;;6.13;4.10;;;13.30;99.90;;;;;;5063082;28;20247;-67
2021/05/29 08:17:22;;;;;;;6.87;4.13;;;13.50;99.90;;;;;;5061582;28;20197;-66
2021/05/29 08:20:11;;;;;;;6.53;4.23;;;13.50;99.90;;;;;;5064263;28;20199;-67
2021/05/29 08:22:58;;;;;;;6.90;3.97;;;13.40;99.90;;;;;;5058006;28;20217;-67
2021/05/29 08:25:46;;;;;;;8.20;4.50;;;13.50;99.90;;;;;;5059603;28;20233;-66
2021/05/29 08:28:33;;;;;;;8.03;4.60;;;13.70;99.90;;;;;;5063086;28;20205;-67
2021/05/29 08:31:20;;;;;;;7.73;4.23;;;13.80;99.90;;;;;;5061696;28;20288;-68
2021/05/29 08:34:08;;;;;;;6.90;4.20;;;14.10;99.90;;;;;;5058693;28;20530;-67
2021/05/29 08:36:54;;;;;;;7.13;4.10;;;14.20;99.90;;;;;;5056748;28;21071;-67
2021/05/29 08:39:42;;;;;;;7.63;4.80;;;14.00;99.90;;;;;;5066090;28;20206;-67
2021/05/29 08:42:29;;;;;;;7.97;4.00;;;13.80;99.90;;;;;;5059627;28;20235;-67
2021/05/29 08:45:17;;;;;;;5.70;4.10;;;13.70;99.90;;;;;;5065036;28;20638;-67
2021/05/29 08:48:05;;;;;;;6.73;3.80;;;13.70;99.90;;;;;;5060849;28;20209;-67
2021/05/29 08:53:57;;;;;;;5.53;3.97;;;13.60;99.90;;;;;;5059216;28;20220;-67
2021/05/29 08:56:45;;;;;;;8.43;4.80;;;13.60;99.90;;;;;;5061441;28;20210;-67
2021/05/29 08:59:32;;;;;;;9.73;4.40;;;13.80;99.90;;;;;;5059647;28;20213;-68
2021/05/29 09:02:19;;;;;;;8.00;4.17;;;13.90;99.90;;;;;;5066717;28;20641;-67
2021/05/29 09:05:08;;;;;;;7.87;4.57;;;13.90;99.90;;;;;;5062136;28;20843;-67
2021/05/29 09:08:02;;;;;;;7.47;4.17;;;14.10;99.90;;;;;;5058128;28;20562;-67
2021/05/29 09:10:52;;;;;;;8.50;3.90;;;14.20;99.90;;;;;;5054489;28;20205;-67
2021/05/29 09:13:40;;;;;;;8.40;4.40;;;14.40;99.90;;;;;;5058690;28;20203;-67
2021/05/29 09:16:27;;;;;;;9.37;4.37;;;14.30;99.90;;;;;;5058431;28;20224;-66
2021/05/29 09:19:13;;;;;;;8.63;4.40;;;14.30;99.90;;;;;;5061755;28;20332;-67
2021/05/29 09:22:04;;;;;;;9.13;4.87;;;13.90;99.90;;;;;;5057278;28;20206;-66
2021/05/29 09:25:01;;;;;;;6.13;3.57;;;14.20;99.90;;;;;;5051735;28;20248;-67
2021/05/29 09:27:53;;;;;;;8.10;4.23;;;14.20;99.90;;;;;;5050935;28;20608;-66
2021/05/29 09:30:44;;;;;;;7.93;4.17;;;14.00;99.90;;;;;;5051738;28;20200;-67
2021/05/29 09:33:35;;;;;;;10.20;4.13;;;14.00;99.90;;;;;;5064616;28;20276;-67
2021/05/29 09:36:22;;;;;;;6.57;4.00;;;14.20;99.90;;;;;;5051527;28;20217;-67
2021/05/29 09:39:09;;;;;;;6.97;4.00;;;14.40;99.90;;;;;;5052958;28;20205;-67
2021/05/29 09:41:58;;;;;;;7.30;4.20;;;14.30;99.90;;;;;;5064603;28;20219;-66
2021/05/29 09:44:45;;;;;;;6.77;3.17;;;14.10;99.90;;;;;;5051121;28;20308;-67
2021/05/29 09:47:33;;;;;;;12.53;3.50;;;13.50;99.90;;;;;;5053479;28;20275;-67
2021/05/29 09:50:21;;;;;;;6.23;3.10;;;13.30;99.90;;;;;;5057556;28;20201;-67
2021/05/29 09:53:08;;;;;;;6.50;3.07;;;12.90;99.90;;;;;;5067539;28;20206;-67
2021/05/29 09:55:55;;;;;;;4.47;3.07;;;12.60;99.90;;;;;;5062635;28;20210;-67
2021/05/29 09:58:49;;;;;;;5.80;3.43;;;12.50;99.90;;;;;;5053575;28;20223;-68
2021/05/29 10:01:52;;;;;;;4.90;2.70;;;12.30;99.90;;;;;;5052882;28;20209;-67
2021/05/29 10:04:40;;;;;;;3.93;2.53;;;12.30;99.90;;;;;;5051060;28;20237;-67
2021/05/29 10:07:39;;;;;;;3.73;2.67;;;12.20;99.90;;;;;;5066514;28;20227;-68
2021/05/29 10:10:26;;;;;;;6.80;2.93;;;12.00;99.90;;;;;;5051380;28;20271;-67
2021/05/29 10:13:13;;;;;;;4.73;3.40;;;12.10;99.90;;;;;;5051465;28;20216;-66
2021/05/29 10:16:00;;;;;;;8.20;4.40;;;12.30;99.90;;;;;;5051259;28;20212;-67
2021/05/29 10:18:49;;;;;;;6.90;4.10;;;12.60;99.90;;;;;;5051745;28;20667;-67
2021/05/29 10:21:37;;;;;;;9.13;4.07;;;13.20;99.90;;;;;;5050342;28;20244;-67
2021/05/29 10:24:24;;;;;;;8.13;3.60;;;14.00;99.90;;;;;;5049270;28;20230;-67
2021/05/29 10:27:13;;;;;;;7.10;4.20;;;14.90;99.90;;;;;;5054465;28;20295;-67
2021/05/29 10:30:01;;;;;;;7.77;4.93;;;15.70;99.90;;;;;;5059362;28;20674;-66
2021/05/29 10:33:10;;;;;;;6.60;3.30;;;16.30;99.90;;;;;;5060499;28;20205;-68
2021/05/29 10:35:57;;;;;;;6.47;2.57;;;17.20;99.90;;;;;;5065032;28;20565;-67
2021/05/29 10:38:47;;;;;;;4.00;2.60;;;17.80;99.90;;;;;;5063473;28;20206;-67
2021/05/29 10:41:59;;;;;;;6.60;2.37;;;18.40;99.90;;;;;;5060435;28;20210;-67
2021/05/29 10:44:47;;;;;;;6.17;2.40;;;18.40;99.90;;;;;;5067400;28;20227;-67
2021/05/29 10:47:35;;;;;;;8.20;2.83;;;18.50;99.90;;;;;;5068064;28;20204;-67
2021/05/29 10:50:22;;;;;;;6.67;3.00;;;17.90;99.90;;;;;;5060647;28;20227;-68
2021/05/29 10:53:09;;;;;;;4.93;2.73;;;17.50;99.90;;;;;;5070850;28;20667;-67
2021/05/29 10:56:21;;;;;;;6.53;3.20;;;17.10;99.90;;;;;;5062122;28;20203;-68
2021/05/29 10:59:10;;;;;;;6.03;2.67;;;17.30;99.90;;;;;;5063334;28;20641;-67
2021/05/29 11:02:04;;;;;;;3.50;2.80;;;16.30;99.90;;;;;;5063636;28;20672;-67
2021/05/29 11:04:51;;;;;;;5.17;3.00;;;15.90;99.90;;;;;;5068259;28;20221;-67
2021/05/29 11:07:38;;;;;;;4.40;2.70;;;15.50;99.90;;;;;;5065236;28;20284;-67
2021/05/29 11:10:29;;;;;;;8.57;2.80;;;15.10;99.90;;;;;;5062588;28;20212;-67
2021/05/29 11:13:17;;;;;;;4.10;2.17;;;14.90;99.90;;;;;;5067977;28;20199;-67
2021/05/29 11:16:04;;;;;;;3.37;2.10;;;14.30;99.90;;;;;;5054118;28;20215;-67
2021/05/29 11:19:13;;;;;;;6.63;1.97;;;13.30;99.90;;;;;;5060581;28;20610;-67
2021/05/29 11:22:00;;;;;;;3.73;1.40;;;12.30;99.90;;;;;;5063428;28;20224;-67
2021/05/29 11:24:59;;;;;;;3.50;1.50;;;11.60;99.90;;;;;;5069022;28;20342;-67
2021/05/29 11:27:47;;;;;;;1.60;1.20;;;11.50;99.90;;;;;;5064128;28;20200;-67
2021/05/29 11:30:35;;;;;;;4.53;2.30;;;11.80;99.90;;;;;;5062822;28;20202;-67
2021/05/29 11:33:22;;;;;;;8.20;3.93;;;12.10;99.90;;;;;;5067427;28;20209;-68
2021/05/29 11:36:09;;;;;;;4.77;2.43;;;12.40;99.90;;;;;;5067318;28;20230;-67
2021/05/29 11:39:06;;;;;;;4.40;2.00;;;12.60;99.90;;;;;;5067751;28;20259;-67
2021/05/29 11:41:59;;;;;;;3.33;1.57;;;12.70;99.90;;;;;;5065666;28;20216;-67
2021/05/29 11:44:46;;;;;;;2.00;1.17;;;12.80;99.90;;;;;;5062845;28;20228;-67
2021/05/29 11:47:34;;;;;;;1.83;1.43;;;12.90;99.90;;;;;;5062335;28;20237;-68
2021/05/29 11:50:21;;;;;;;2.77;1.43;;;13.10;99.90;;;;;;5064503;28;20230;-68
2021/05/29 11:53:09;;;;;;;0.97;0.90;;;13.50;99.90;;;;;;5062473;28;20285;-66
2021/05/29 11:55:58;;;;;;;3.97;1.30;;;13.90;99.90;;;;;;5061534;28;20201;-67
2021/05/29 11:58:49;;;;;;;5.07;2.10;;;14.10;99.90;;;;;;5068415;28;20644;-67
2021/05/29 12:01:37;;;;;;;4.13;2.43;;;14.30;99.90;;;;;;5071328;28;20218;-67
2021/05/29 12:04:26;;;;;;;7.37;3.00;;;14.40;99.90;;;;;;5062185;28;20278;-67
2021/05/29 12:07:13;;;;;;;4.67;2.50;;;14.40;99.90;;;;;;5052667;28;20232;-67
2021/05/29 12:10:02;;;;;;;5.10;3.20;;;14.60;99.90;;;;;;5053787;28;20203;-67
2021/05/29 12:12:52;;;;;;;6.17;3.73;;;14.60;99.90;;;;;;5052993;28;20216;-67
2021/05/29 12:15:39;;;;;;;4.80;3.40;;;14.60;99.90;;;;;;5055843;28;20569;-67
2021/05/29 12:18:28;;;;;;;8.23;3.60;;;14.40;99.90;;;;;;5072214;28;20231;-67
2021/05/29 12:21:16;;;;;;;6.00;3.37;;;14.50;99.90;;;;;;5064228;28;20228;-67
2021/05/29 12:24:04;;;;;;;3.67;2.97;;;14.50;99.90;;;;;;5064792;28;20323;-67
2021/05/29 12:26:51;;;;;;;3.90;2.77;;;15.00;99.90;;;;;;5063086;28;20314;-67
2021/05/29 12:29:38;;;;;;;7.53;2.47;;;15.10;99.90;;;;;;5070343;28;20213;-67
2021/05/29 12:32:29;;;;;;;4.60;2.70;;;15.60;99.90;;;;;;5067866;28;20209;-67
2021/05/29 12:35:30;;;;;;;6.00;2.50;;;15.90;99.90;;;;;;5065934;28;20667;-67
2021/05/29 12:38:19;;;;;;;4.03;2.30;;;15.60;99.90;;;;;;5065427;28;20209;-67
2021/05/29 12:41:08;;;;;;;4.47;2.37;;;15.60;99.90;;;;;;5065572;28;20197;-67
2021/05/29 12:44:04;;;;;;;6.50;2.70;;;15.40;99.90;;;;;;5064497;28;20209;-67
2021/05/29 12:46:53;;;;;;;7.37;2.60;;;14.90;99.90;;;;;;5068286;28;20197;-67
2021/05/29 12:49:40;;;;;;;7.93;2.50;;;14.60;99.90;;;;;;5065678;28;20644;-67
2021/05/29 12:52:32;;;;;;;4.53;2.60;;;14.20;99.90;;;;;;5070271;28;20307;-67
2021/05/29 12:55:24;;;;;;;2.97;2.37;;;14.00;99.90;;;;;;5065766;28;20205;-67
2021/05/29 12:58:15;;;;;;;6.57;2.60;;;14.00;99.90;;;;;;5064928;28;20204;-67
2021/05/29 13:01:16;;;;;;;5.57;2.87;;;14.10;99.90;;;;;;5071202;28;20209;-67
2021/05/29 13:07:25;;;;;;;7.70;3.00;;;13.80;99.90;;;;;;5056543;28;20213;-67
2021/05/29 13:10:21;;;;;;;5.93;3.30;;;13.40;99.90;;;;;;5068637;28;20205;-67
2021/05/29 13:13:09;;;;;;;7.97;3.20;;;13.10;99.90;;;;;;5068740;28;20732;-67
2021/05/29 13:16:02;;;;;;;4.57;2.80;;;13.10;99.90;;;;;;5061518;28;20305;-67
2021/05/29 13:19:01;;;;;;;4.83;3.10;;;12.90;99.90;;;;;;5064501;28;20289;-66
2021/05/29 13:21:56;;;;;;;6.83;2.93;;;12.80;99.90;;;;;;5067274;28;20251;-67
2021/05/29 13:24:57;;;;;;;6.43;3.23;;;12.80;99.90;;;;;;5063849;28;20265;-67
2021/05/29 13:27:45;;;;;;;5.37;3.43;;;12.90;99.90;;;;;;5062812;28;20654;-67
2021/05/29 13:30:33;;;;;;;7.53;3.13;;;12.90;99.90;;;;;;5069464;28;20209;-67
2021/05/29 13:33:20;;;;;;;8.30;4.13;;;12.90;99.90;;;;;;5062669;28;20225;-68
2021/05/29 13:36:07;;;;;;;8.93;3.53;;;12.90;99.90;;;;;;5066273;28;20210;-67
2021/05/29 13:38:55;;;;;;;14.20;5.13;;;12.50;99.90;;;;;;5064430;28;20201;-68
2021/05/29 13:41:42;;;;;;;9.47;4.60;;;12.30;99.90;;;;;;5064062;28;20281;-66
2021/05/29 13:44:29;;;;;;;11.67;5.13;;;12.10;99.90;;;;;;5057614;28;20222;-67
2021/05/29 13:47:17;;;;;;;10.83;5.37;;;11.80;99.90;;;;;;5068018;28;20261;-67
2021/05/29 13:50:04;;;;;;;9.30;5.07;;;11.70;99.90;;;;;;5057716;28;20326;-67
2021/05/29 13:52:51;;;;;;;19.73;7.50;;;11.50;99.90;;;;;;5062695;28;20211;-67
2021/05/29 13:55:38;;;;;;;13.27;6.00;;;11.40;99.90;;;;;;5068163;28;20239;-67
2021/05/29 13:58:25;;;;;;;12.47;4.87;;;11.30;99.90;;;;;;5069951;28;20290;-66
2021/05/29 14:01:12;;;;;;;14.07;5.60;;;11.30;99.90;;;;;;5063949;28;20221;-66
2021/05/29 14:04:00;;;;;;;10.17;5.87;;;11.50;99.90;;;;;;5062541;28;20355;-68
2021/05/29 14:06:47;;;;;;;10.53;5.97;;;11.90;99.90;;;;;;5056939;28;20303;-66
2021/05/29 14:09:34;;;;;;;10.27;5.00;;;12.40;99.90;;;;;;5067479;28;20625;-67
2021/05/29 14:12:21;;;;;;;22.07;10.53;;;13.10;99.90;;;;;;5066225;28;20202;-67
2021/05/29 14:15:09;;;;;;;25.90;13.80;;;13.70;99.90;;;;;;5065585;28;20210;-67
2021/05/29 14:17:55;;;;;;;25.20;13.70;;;14.00;99.90;;;;;;5064245;28;20218;-68
2021/05/29 14:20:43;;;;;;;11.77;6.50;;;15.10;99.90;;;;;;5069837;28;20206;-67
2021/05/29 14:23:30;;;;;;;7.93;4.47;;;15.70;99.90;;;;;;5063183;28;20758;-67
2021/05/29 14:26:18;;;;;;;7.30;3.90;;;16.20;99.90;;;;;;5062213;28;20251;-67
2021/05/29 14:29:06;;;;;;;13.53;6.93;;;16.70;99.90;;;;;;5070748;28;20605;-66
2021/05/29 14:31:53;;;;;;;8.27;5.30;;;16.70;99.90;;;;;;5067091;28;20663;-67
2021/05/29 14:34:40;;;;;;;7.87;4.57;;;16.80;99.90;;;;;;5069786;28;20702;-68
2021/05/29 14:37:27;;;;;;;7.27;4.20;;;17.20;99.90;;;;;;5063076;28;20242;-67
2021/05/29 14:40:15;;;;;;;5.97;4.00;;;17.80;99.90;;;;;;5070249;28;20279;-67
2021/05/29 14:43:01;;;;;;;7.23;3.60;;;18.20;99.90;;;;;;5062476;28;20226;-67
2021/05/29 14:45:49;;;;;;;6.40;3.60;;;18.60;99.90;;;;;;5062916;28;20713;-67